Estación Meteorológica Peña el Pijo (Robertgarden) [ 01/30/23 14:21:59 CET ]

Fecha Hora Presion(HPa) Temp (°C) Humedad % Rocio (°C) Viento ( m/s) Direccion Lluvia 1Hora(mm) Lluvia 24H(mm) LLuvia Total(mm)
2012-Nov-07 01:01:20 1014.500 5.8 90 4.3         178.19
2012-Nov-07 02:01:53 1014.700 5.8 91 4.5         178.19
2012-Nov-07 03:01:52 1014.600 5.9 92 4.7         178.19
2012-Nov-07 04:03:16 1014.200 5.9 93 4.8         178.19
2012-Nov-07 05:01:16 1014.200 6.1 93 5.0         178.19
2012-Nov-07 06:01:24 1014.700 6.3 94 5.4         178.19
2012-Nov-07 07:01:11 1014.700 6.3 94 5.4         178.19
2012-Nov-07 08:01:16 1015.600 6.4 94 5.5         178.19
2012-Nov-07 09:01:11 1015.700 6.6 94 5.7         178.19
2012-Nov-07 10:01:13 1016.300 6.9 94 6.0         178.19
2012-Nov-07 11:01:14 1016.200 7.2 93 6.2         178.19
2012-Nov-07 12:01:15 1015.900 7.2 93 6.2         178.19
2012-Nov-07 13:01:19 1015.500 7.4 93 6.3         178.19
2012-Nov-07 14:01:13 1015.100 8.4 93 7.3         178.19
2012-Nov-07 15:01:17 1015.400 8.6 91 7.2         178.19
2012-Nov-07 16:01:16 1015.000 8.9 90 7.4         178.19
2012-Nov-07 17:01:13 1015.300 8.8 90 7.3         178.19
2012-Nov-07 18:01:16 1014.900 8.8 92 7.6         178.19
2012-Nov-07 19:01:16 1015.900 8.3 93 7.2         178.19
2012-Nov-07 20:01:12 1015.600 8.2 94 7.3         178.19
2012-Nov-07 21:01:16 1015.900 8.5 94 7.6         178.19
2012-Nov-07 22:01:16 1015.700 8.6 94 7.7         178.19
2012-Nov-07 23:01:17 1015.800 8.3 94 7.4         178.19

Temperatura Máxima:    Temperatura Mínima:
Presión Máxima:1016.300 Hpa    Presión Mínima:1014.200 Hpa


Volver